• Join FlightAware (Why Join?)
  • Login
  • US Flag 
04:09PM EDT


 

Airport Tracker/Info


-or-


 

Live Flight TrackerFlight Track Log ✈ ASQ6023 ✈ 04-May-2013 ✈ KOMA - KORD

Flight Track Log - Related Links

Times and Time Zones

All times are in EDT time to prevent confusion due to time zone crossing. See the ASQ6023 flight status page for this flight to view local times or setup timezone preferences in your user account.

Time Position Orientation Groundspeed Altitude Reporting Facility
EDT Latitude Longitude Course Direction KTS MPH feet Rate Location/Type
12:38PM 41.3153 -95.9144 354° North 157 181 1,500  Level Minneapolis Center
12:39PM 41.3703 -95.9219 354° North 199 229 3,900 2,160 Climbing Minneapolis Center
12:40PM 41.4364 -95.8692 31° Northeast 222 255 6,700 2,520 Climbing Minneapolis Center
12:41PM 41.4964 -95.8203 31° Northeast 238 274 9,400 2,280 Climbing Minneapolis Center
12:42PM 41.5603 -95.7708 30° Northeast 251 289 11,400 1,740 Climbing Minneapolis Center
12:43PM 41.6208 -95.6867 46° Northeast 289 333 13,000 1,500 Climbing Minneapolis Center
12:44PM 41.6858 -95.5992 45° Northeast 318 366 14,600 1,560 Climbing Minneapolis Center
12:45PM 41.7528 -95.5036 47° Northeast 344 396 16,300 1,500 Climbing Minneapolis Center
12:46PM 41.8225 -95.4086 45° Northeast 354 407 17,700 1,500 Climbing Minneapolis Center
12:47PM 41.9092 -95.2889 46° Northeast 367 422 19,500 1,560 Climbing Minneapolis Center
12:48PM 41.9364 -95.1553 75° East 372 428 21,000 1,320 Climbing Minneapolis Center
12:49PM 41.9547 -95.0164 80° East 377 434 22,300 1,500 Climbing Minneapolis Center
12:50PM 41.9694 -94.8747 82° East 381 438 24,100 1,560 Climbing Minneapolis Center
12:51PM 41.9875 -94.7372 80° East 376 433 25,600 1,260 Climbing Minneapolis Center
12:52PM 42.0039 -94.5997 81° East 373 429 26,800 1,020 Climbing Minneapolis Center
12:53PM 42.0214 -94.4586 80° East 379 436 27,800 960 Climbing Minneapolis Center
12:54PM 42.0378 -94.3153 81° East 386 444 28,800 1,020 Climbing Minneapolis Center
12:55PM 42.0578 -94.1442 81° East 387 445 30,000 1,020 Climbing Minneapolis Center
12:56PM 42.0744 -93.9969 81° East 395 455 31,000 1,020 Climbing Minneapolis Center
12:57PM 42.0894 -93.8667 81° East 398 458 32,100 960 Climbing Minneapolis Center
12:59PM 42.1061 -93.7214 81° East 397 457 33,000 420 Climbing Minneapolis Center
01:00PM 42.1253 -93.5383 82° East 414 476 33,000  Level Minneapolis Center
01:01PM 42.1425 -93.3850 81° East 417 480 33,000  Level Minneapolis Center
01:02PM 42.1589 -93.2361 82° East 410 472 33,000  Level Minneapolis Center
01:03PM 42.1742 -93.0875 82° East 404 465 33,000  Level Minneapolis Center
01:04PM 42.1906 -92.9381 82° East 406 467 33,000  Level Minneapolis Center
01:05PM 42.2056 -92.7919 82° East 400 460 33,000  Level Minneapolis Center
01:06PM 42.2239 -92.6153 82° East 400 460 33,000  Level Minneapolis Center
01:07PM 42.2386 -92.4667 82° East 402 463 33,000  Level Minneapolis Center
01:08PM 42.2539 -92.3175 82° East 404 465 33,000  Level Minneapolis Center
01:09PM 42.2681 -92.1686 83° East 405 466 33,000 -60 Level Minneapolis Center
01:10PM 42.2808 -92.0481 82° East 404 465 32,900 -660 Descending Chicago Center
01:11PM 42.2944 -91.8931 83° East 418 481 31,900 -960 Descending Chicago Center
01:12PM 42.3103 -91.7353 82° East 429 494 31,000 -480 Descending Chicago Center
01:13PM 42.3242 -91.5814 83° East 423 487 31,000  Level Chicago Center
01:14PM 42.3406 -91.4036 83° East 407 468 31,000  Level Chicago Center
01:15PM 42.3539 -91.2544 83° East 405 466 31,000  Level Chicago Center
01:16PM 42.3669 -91.1058 83° East 405 466 31,000  Level Chicago Center
01:17PM 42.3803 -90.9544 83° East 410 472 31,000  Level Chicago Center
01:18PM 42.3928 -90.8017 84° East 413 475 31,000  Level Chicago Center
01:19PM 42.4111 -90.6186 82° East 414 476 31,000  Level Chicago Center
01:20PM 42.4258 -90.4656 83° East 415 478 31,000 -60 Level Chicago Center
01:21PM 42.4419 -90.3089 82° East 415 478 30,900 -1,200 Descending Chicago Center
01:22PM 42.4564 -90.1531 83° East 429 494 28,600 -2,160 Descending Chicago Center
01:23PM 42.4742 -89.9944 81° East 429 494 26,500 -2,160 Descending Chicago Center
01:24PM 42.4914 -89.8086 83° East 415 478 24,200 -2,220 Descending Chicago Center
01:25PM 42.5061 -89.6578 82° East 405 466 22,000 -2,340 Descending Chicago Center
01:26PM 42.5200 -89.5094 83° East 399 459 19,400 -2,340 Descending Chicago Center
01:27PM 42.5333 -89.3653 83° East 386 444 17,300 -2,040 Descending Chicago Center
01:28PM 42.5456 -89.2367 83° East 349 402 15,300 -1,620 Descending Chicago Center
01:29PM 42.5547 -89.1108 84° East 339 390 14,000 -720 Descending Chicago Center
01:30PM 42.5203 -88.9817 110° East 312 359 13,900 -840 Descending Chicago Center
01:31PM 42.4892 -88.8783 112° Southeast 298 343 12,400 -1,680 Descending Chicago Center
01:32PM 42.4606 -88.7817 112° Southeast 279 321 10,500 -1,500 Descending Chicago Center
01:33PM 42.4319 -88.6886 113° Southeast 269 310 9,300 -780 Descending Chicago Center
01:34PM 42.4042 -88.5981 113° Southeast 264 304 9,000 -180 Descending Chicago Center
01:35PM 42.3753 -88.5044 113° Southeast 267 307 9,000  Level Chicago Center
01:36PM 42.3097 -88.4467 147° Southeast 277 319 9,000  Level Chicago Center
01:37PM 42.2358 -88.4314 171° South 271 312 9,000 -480 Level Chicago Center
01:38PM 42.1636 -88.4150 170° South 267 307 8,100 -960 Descending Chicago Center
01:39PM 42.0908 -88.3967 169° South 266 306 7,100 -1,200 Descending Chicago Center
01:40PM 42.0211 -88.3822 171° South 258 297 5,700 -1,080 Descending Chicago Center
01:41PM 41.9842 -88.3250 131° Southeast 236 272 4,900 -840 Descending Chicago Center
01:42PM 41.9672 -88.2403 105° East 206 237 4,100 -480 Descending Chicago Center
01:43PM 41.9672 -88.1644 90° East 203 234 4,000 -540 Descending Chicago Center
01:44PM 41.9683 -88.0872 89° East 204 235 3,000 -1,080 Descending Chicago Center
01:45PM 41.9667 -88.0667 96° East 197 227 2,600 -960 Descending Chicago TRACON
01:46PM 41.9667 -88.0000 90° East 138 159 1,700 -780 Descending Chicago TRACON
01:47PM 41.9667 -87.9500 90° East 134 154 1,000 -720 Descending Chicago TRACON
01:49PM 41.9667 -87.9000 143° Southeast  Level FlightAware Approximate